עמוד ראשי
METAR-TAF:

METAR-TAF

שדות תעופה :

אסדת קידוח

Statfjord B, נורבגיה

קו רוחב: 61-12-22N, קו אורך: 1-49-45E, גובה: 10מטר

תצפית מזג אוויר נוכחית

הדו"ח נערך לפני 16דקות, בשעה 21:50 UTC
רוח 5קשר מכיוון צפון/צפון-מערב
טמפרטורת 9 צלסיוס
לחות 87%
לחץ 1016 hPa
ראות 10 קילומטר או יותר

METAR: ENFB 182150Z AUTO 33005KT 9999 BKN024/// BKN064/// 09/07 Q1016 W///S3

זמן: 00:06 (22:06 UTC)


TAF: חסר

תצפיות ותחזיות מזג אוויר לגבי יותר מ- 4,000 שדות תעופה ברחבי העולם. דוחות METAR ו- TAF.

התחנות הזמינות מסומנות בנקודות צהובות ואדומות על גבי המפה.

העבר את העכבר לנקודה הצבעונית על מנת לראות את שם התחנה.

לאחר מכן, לחץ כדי לראות את תוכן ואת תחזיות מזג האוויר.

כדי לשנות את המפה: לחץ על הכפתורים הירוקים עם הפלוס השחור כדי להתקרב; על הכפתור הירוק עם המקף כדי להתרחק; או בחיצים הירוקים למפות סמוכות.


METAR-TAF: